createdAt,value
2018-05-26T00:00:31.215Z,1002.18
2018-05-26T00:01:41.306Z,1002.16
2018-05-26T00:02:51.411Z,1002.17
2018-05-26T00:04:01.493Z,1002.19
2018-05-26T00:05:11.593Z,1002.19
2018-05-26T00:06:21.724Z,1002.21
2018-05-26T00:07:31.533Z,1002.23
2018-05-26T00:08:41.357Z,1002.21
2018-05-26T00:09:51.526Z,1002.24
2018-05-26T00:11:01.665Z,1002.23
2018-05-26T00:12:11.772Z,1002.26
2018-05-26T00:13:21.593Z,1002.21
2018-05-26T00:14:31.435Z,1002.21
2018-05-26T00:15:41.548Z,1002.23
2018-05-26T00:16:51.402Z,1002.24
2018-05-26T00:18:01.234Z,1002.23
2018-05-26T00:19:11.318Z,1002.28
2018-05-26T00:20:20.880Z,1002.26
2018-05-26T00:21:30.976Z,1002.27
2018-05-26T00:22:41.055Z,1002.29
2018-05-26T00:23:51.219Z,1002.32
2018-05-26T00:25:01.047Z,1002.35
2018-05-26T00:26:11.145Z,1002.38
2018-05-26T00:27:21.234Z,1002.31
2018-05-26T00:28:31.094Z,1002.34
2018-05-26T00:29:41.198Z,1002.34
2018-05-26T00:30:51.301Z,1002.3
2018-05-26T00:32:00.858Z,1002.33
2018-05-26T00:33:10.704Z,1002.33
2018-05-26T00:34:20.780Z,1002.31
2018-05-26T00:35:30.943Z,1002.32
2018-05-26T00:36:41.026Z,1002.33
2018-05-26T00:37:50.857Z,1002.37
2018-05-26T00:39:00.676Z,1002.32
2018-05-26T00:40:10.493Z,1002.32
2018-05-26T00:41:20.318Z,1002.33
2018-05-26T00:42:30.417Z,1002.32
2018-05-26T00:43:39.975Z,1002.32
2018-05-26T00:44:49.786Z,1002.29
2018-05-26T00:45:59.876Z,1002.3
2018-05-26T00:47:09.995Z,1002.3
2018-05-26T00:48:19.795Z,1002.31
2018-05-26T00:49:29.878Z,1002.26
2018-05-26T00:50:39.960Z,1002.3
2018-05-26T00:51:50.043Z,1002.27
2018-05-26T00:52:59.860Z,1002.29
2018-05-26T00:54:09.935Z,1002.31
2018-05-26T00:55:20.015Z,1002.29
2018-05-26T00:56:30.092Z,1002.28
2018-05-26T00:57:39.930Z,1002.32
2018-05-26T00:58:49.819Z,1002.31
2018-05-26T00:59:59.889Z,1002.29
2018-05-26T01:01:09.717Z,1002.29
2018-05-26T01:02:19.807Z,1002.3
2018-05-26T01:03:29.641Z,1002.28
2018-05-26T01:04:39.729Z,1002.32
2018-05-26T01:05:49.805Z,1002.29
2018-05-26T01:06:59.883Z,1002.29
2018-05-26T01:08:09.695Z,1002.32
2018-05-26T01:09:19.791Z,1002.3
2018-05-26T01:10:29.877Z,1002.33
2018-05-26T01:11:39.963Z,1002.32
2018-05-26T01:12:50.056Z,1002.31
2018-05-26T01:13:59.601Z,1002.33
2018-05-26T01:15:09.691Z,1002.3
2018-05-26T01:16:19.495Z,1002.3
2018-05-26T01:17:29.590Z,1002.34
2018-05-26T01:18:39.743Z,1002.35
2018-05-26T01:19:49.834Z,1002.35
2018-05-26T01:20:59.942Z,1002.37
2018-05-26T01:22:09.535Z,1002.36
2018-05-26T01:23:19.326Z,1002.39
2018-05-26T01:24:29.417Z,1002.39
2018-05-26T01:25:39.244Z,1002.41
2018-05-26T01:26:49.061Z,1002.43
2018-05-26T01:28:00.090Z,1002.4
2018-05-26T01:29:09.387Z,1002.41
2018-05-26T01:30:20.318Z,1002.39
2018-05-26T01:31:29.883Z,1002.36
2018-05-26T01:32:39.974Z,1002.33
2018-05-26T01:33:50.063Z,1002.35
2018-05-26T01:34:59.875Z,1002.36
2018-05-26T01:36:09.968Z,1002.34
2018-05-26T01:37:19.795Z,1002.33
2018-05-26T01:38:29.887Z,1002.34
2018-05-26T01:39:39.977Z,1002.36
2018-05-26T01:40:50.071Z,1002.38
2018-05-26T01:42:00.147Z,1002.43
2018-05-26T01:43:10.252Z,1002.41
2018-05-26T01:44:20.105Z,1002.41
2018-05-26T01:45:30.202Z,1002.43
2018-05-26T01:46:40.049Z,1002.39
2018-05-26T01:47:50.145Z,1002.39
2018-05-26T01:49:00.233Z,1002.35
2018-05-26T01:50:10.315Z,1002.32
2018-05-26T01:51:20.407Z,1002.3
2018-05-26T01:52:30.474Z,1002.3
2018-05-26T01:53:40.583Z,1002.29
2018-05-26T01:54:50.404Z,1002.31
2018-05-26T01:56:00.480Z,1002.3
2018-05-26T01:57:10.619Z,1002.33
2018-05-26T01:58:20.695Z,1002.33
2018-05-26T01:59:30.765Z,1002.35
2018-05-26T02:00:40.320Z,1002.32
2018-05-26T02:01:50.404Z,1002.33
2018-05-26T02:03:00.505Z,1002.34
2018-05-26T02:04:10.329Z,1002.32
2018-05-26T02:05:20.418Z,1002.33
2018-05-26T02:06:30.503Z,1002.33
2018-05-26T02:07:40.608Z,1002.34
2018-05-26T02:08:50.498Z,1002.36
2018-05-26T02:10:00.321Z,1002.36
2018-05-26T02:11:10.428Z,1002.33
2018-05-26T02:12:20.544Z,1002.32
2018-05-26T02:13:30.630Z,1002.28
2018-05-26T02:14:40.727Z,1002.32
2018-05-26T02:15:50.819Z,1002.31
2018-05-26T02:17:00.635Z,1002.32
2018-05-26T02:18:10.721Z,1002.29
2018-05-26T02:19:20.801Z,1002.31
2018-05-26T02:20:30.908Z,1002.32
2018-05-26T02:21:40.999Z,1002.33
2018-05-26T02:22:50.815Z,1002.34
2018-05-26T02:24:00.906Z,1002.34
2018-05-26T02:25:10.711Z,1002.32
2018-05-26T02:26:20.387Z,1002.35
2018-05-26T02:27:30.471Z,1002.34
2018-05-26T02:28:40.556Z,1002.36
2018-05-26T02:29:50.636Z,1002.37
2018-05-26T02:31:00.516Z,1002.34
2018-05-26T02:32:10.612Z,1002.36
2018-05-26T02:33:20.736Z,1002.35
2018-05-26T02:34:30.830Z,1002.39
2018-05-26T02:35:40.670Z,1002.38
2018-05-26T02:36:50.766Z,1002.39
2018-05-26T02:38:00.591Z,1002.42
2018-05-26T02:39:10.682Z,1002.45
2018-05-26T02:40:20.755Z,1002.44
2018-05-26T02:41:30.832Z,1002.41
2018-05-26T02:42:40.930Z,1002.39
2018-05-26T02:43:51.008Z,1002.42
2018-05-26T02:45:01.105Z,1002.41
2018-05-26T02:46:11.197Z,1002.4
2018-05-26T02:47:21.281Z,1002.4
2018-05-26T02:48:31.375Z,1002.41
2018-05-26T02:49:41.523Z,1002.39
2018-05-26T02:50:51.614Z,1002.37
2018-05-26T02:52:01.664Z,1002.38
2018-05-26T02:53:11.732Z,1002.39
2018-05-26T02:54:21.814Z,1002.42
2018-05-26T02:55:31.903Z,1002.41
2018-05-26T02:56:41.975Z,1002.44
2018-05-26T02:57:51.521Z,1002.44
2018-05-26T02:59:01.608Z,1002.45
2018-05-26T03:00:11.685Z,1002.43
2018-05-26T03:01:21.837Z,1002.42
2018-05-26T03:02:31.653Z,1002.41
2018-05-26T03:34:52.873Z,1002.65
2018-05-26T03:36:02.934Z,1002.68
2018-05-26T03:37:12.727Z,1002.69
2018-05-26T03:38:22.784Z,1002.69
2018-05-26T03:39:32.876Z,1002.68
2018-05-26T03:40:42.459Z,1002.69
2018-05-26T03:41:52.519Z,1002.71
2018-05-26T03:43:02.586Z,1002.67
2018-05-26T03:44:12.658Z,1002.71
2018-05-26T03:45:22.452Z,1002.68
2018-05-26T03:46:32.538Z,1002.69
2018-05-26T03:47:42.612Z,1002.67
2018-05-26T03:48:52.759Z,1002.65
2018-05-26T03:50:02.899Z,1002.64
2018-05-26T03:51:12.721Z,1002.65
2018-05-26T03:52:22.808Z,1002.7
2018-05-26T03:53:32.890Z,1002.71
2018-05-26T03:54:42.962Z,1002.73
2018-05-26T03:55:52.781Z,1002.76
2018-05-26T03:57:02.594Z,1002.75
2018-05-26T03:58:12.474Z,1002.75
2018-05-26T03:59:22.287Z,1002.74
2018-05-26T04:00:32.385Z,1002.82
2018-05-26T04:01:42.458Z,1002.8
2018-05-26T04:02:52.530Z,1002.84
2018-05-26T04:04:02.345Z,1002.86
2018-05-26T04:05:12.153Z,1002.92
2018-05-26T04:06:22.247Z,1002.98
2018-05-26T04:07:32.330Z,1002.99
2018-05-26T04:08:42.403Z,1003.1
2018-05-26T04:09:52.514Z,1003.08
2018-05-26T04:11:02.578Z,1003.08
2018-05-26T04:12:12.648Z,1003.12
2018-05-26T04:13:22.719Z,1003.11
2018-05-26T04:14:32.787Z,1003.15
2018-05-26T04:15:42.921Z,1003.15
2018-05-26T04:16:52.997Z,1003.17
2018-05-26T04:18:03.070Z,1003.17
2018-05-26T04:19:13.142Z,1003.44
2018-05-26T04:20:23.220Z,1003.59
2018-05-26T04:21:33.303Z,1003.58
2018-05-26T04:22:43.431Z,1003.6
2018-05-26T04:23:53.251Z,1003.57
2018-05-26T04:25:03.329Z,1003.62
2018-05-26T04:26:13.423Z,1003.55
2018-05-26T04:27:23.250Z,1003.58
2018-05-26T04:28:33.344Z,1003.55
2018-05-26T04:29:43.426Z,1003.55
2018-05-26T04:30:53.504Z,1003.53
2018-05-26T04:32:03.627Z,1003.53
2018-05-26T04:33:13.428Z,1003.51
2018-05-26T04:34:23.511Z,1003.49
2018-05-26T04:35:33.607Z,1003.5
2018-05-26T04:36:43.162Z,1003.51
2018-05-26T04:37:53.237Z,1003.57
2018-05-26T04:39:03.327Z,1003.56
2018-05-26T04:40:13.436Z,1003.5
2018-05-26T04:41:23.533Z,1003.56
2018-05-26T04:42:33.361Z,1003.65
2018-05-26T04:43:43.424Z,1003.7
2018-05-26T04:44:53.256Z,1003.72
2018-05-26T04:46:03.393Z,1003.76
2018-05-26T04:47:13.489Z,1003.76
2018-05-26T04:48:23.622Z,1003.77
2018-05-26T04:49:33.709Z,1003.82
2018-05-26T04:50:43.799Z,1003.79
2018-05-26T04:51:53.871Z,1003.83
2018-05-26T04:53:03.692Z,1003.9
2018-05-26T04:54:13.886Z,1003.92
2018-05-26T04:55:23.958Z,1003.84
2018-05-26T04:56:33.766Z,1003.82
2018-05-26T04:57:43.885Z,1003.86
2018-05-26T04:58:53.700Z,1003.87
2018-05-26T05:00:03.793Z,1003.84
2018-05-26T05:01:13.612Z,1003.84
2018-05-26T05:02:23.442Z,1003.84
2018-05-26T05:03:33.325Z,1003.87
2018-05-26T05:04:43.155Z,1003.83
2018-05-26T05:05:53.236Z,1003.83
2018-05-26T05:07:03.048Z,1003.87
2018-05-26T05:08:12.581Z,1003.9
2018-05-26T05:09:22.670Z,1003.93
2018-05-26T05:10:32.753Z,1003.93
2018-05-26T05:11:42.872Z,1003.91
2018-05-26T05:12:52.691Z,1003.93
2018-05-26T05:14:02.765Z,1003.96
2018-05-26T05:15:12.919Z,1004.08
2018-05-26T05:16:23.000Z,1004.55
2018-05-26T05:17:32.814Z,1004.58
2018-05-26T05:18:42.890Z,1004.43
2018-05-26T05:19:52.985Z,1004.43
2018-05-26T05:21:03.130Z,1004.3
2018-05-26T05:22:12.950Z,1004.12
2018-05-26T05:23:23.043Z,1004.19
2018-05-26T05:24:32.846Z,1004.3
2018-05-26T05:25:42.922Z,1004.32
2018-05-26T05:26:52.737Z,1004.33
2018-05-26T05:28:02.564Z,1004.28
2018-05-26T05:29:12.144Z,1004.26
2018-05-26T05:30:21.992Z,1004.26
2018-05-26T05:31:32.082Z,1004.21
2018-05-26T05:32:42.172Z,1004.23
2018-05-26T05:33:52.273Z,1004.27
2018-05-26T05:35:02.099Z,1004.17
2018-05-26T05:36:12.193Z,1004.16
2018-05-26T05:37:22.006Z,1004.13
2018-05-26T05:38:32.191Z,1004.11
2018-05-26T05:39:42.272Z,1004.19
2018-05-26T05:40:52.092Z,1004.27
2018-05-26T05:42:01.909Z,1004.25
2018-05-26T05:43:11.999Z,1004.22
2018-05-26T05:44:22.142Z,1004.17
2018-05-26T05:45:31.970Z,1004.23
2018-05-26T05:46:42.084Z,1004.31
2018-05-26T05:47:52.163Z,1004.29
2018-05-26T05:49:02.256Z,1004.24
2018-05-26T05:50:12.369Z,1004.27
2018-05-26T05:51:21.928Z,1004.32
2018-05-26T05:52:32.022Z,1004.33
2018-05-26T05:53:42.107Z,1004.22
2018-05-26T05:54:51.929Z,1004.18
2018-05-26T05:56:02.023Z,1004.14
2018-05-26T05:57:11.942Z,1004.17
2018-05-26T05:58:22.025Z,1004.17
2018-05-26T05:59:32.116Z,1004.15
2018-05-26T06:00:41.948Z,1004.11
2018-05-26T06:01:52.023Z,1004.12
2018-05-26T06:03:02.104Z,1004.11
2018-05-26T06:04:12.188Z,1004.14
2018-05-26T06:05:22.271Z,1004.1
2018-05-26T06:06:32.117Z,1004.12
2018-05-26T06:07:42.270Z,1004.1
2018-05-26T06:08:52.092Z,1004.11
2018-05-26T06:10:02.177Z,1004.14
2018-05-26T06:11:12.263Z,1004.11
2018-05-26T06:12:22.351Z,1003.99
2018-05-26T06:13:32.232Z,1003.84
2018-05-26T06:14:42.316Z,1003.87
2018-05-26T06:15:52.465Z,1003.88
2018-05-26T06:17:02.277Z,1003.92
2018-05-26T06:18:12.099Z,1003.92
2018-05-26T06:19:22.182Z,1003.95
2018-05-26T06:20:32.012Z,1003.92
2018-05-26T06:21:42.113Z,1003.93
2018-05-26T06:22:52.208Z,1003.93
2018-05-26T06:24:02.302Z,1003.98
2018-05-26T06:25:12.112Z,1004.07
2018-05-26T06:26:22.235Z,1004.1
2018-05-26T06:27:32.657Z,1004.15
2018-05-26T06:28:42.481Z,1004.14
2018-05-26T06:29:52.290Z,1004.16
2018-05-26T06:31:02.389Z,1004.14
2018-05-26T06:32:12.465Z,1004.16
2018-05-26T06:33:22.269Z,1004.13
2018-05-26T06:34:32.094Z,1004.07
2018-05-26T06:35:41.910Z,1004.07
2018-05-26T06:36:51.759Z,1004.03
2018-05-26T06:38:01.850Z,1003.98
2018-05-26T06:39:11.921Z,1003.97
2018-05-26T06:40:22.013Z,1003.99
2018-05-26T06:41:32.097Z,1003.96
2018-05-26T06:42:42.183Z,1003.94
2018-05-26T06:43:52.249Z,1003.93
2018-05-26T06:45:02.081Z,1003.9
2018-05-26T06:46:12.177Z,1003.92
2018-05-26T06:47:22.258Z,1003.88
2018-05-26T06:48:32.371Z,1003.84
2018-05-26T06:49:42.453Z,1003.84
2018-05-26T06:50:52.554Z,1003.85
2018-05-26T06:52:02.642Z,1003.86
2018-05-26T06:53:12.732Z,1003.87
2018-05-26T06:54:22.931Z,1003.87
2018-05-26T06:55:33.040Z,1003.9
2018-05-26T06:56:42.871Z,1003.92
2018-05-26T06:57:52.976Z,1003.89
2018-05-26T06:59:02.810Z,1003.9
2018-05-26T07:00:12.902Z,1003.93
2018-05-26T07:01:23.137Z,1003.91
2018-05-26T07:02:33.229Z,1003.93
2018-05-26T07:03:43.317Z,1003.91
2018-05-26T07:04:53.441Z,1003.96
2018-05-26T07:06:03.524Z,1003.95
2018-05-26T07:07:13.078Z,1003.91
2018-05-26T07:08:23.180Z,1003.94
2018-05-26T07:09:33.016Z,1003.91
2018-05-26T07:10:42.870Z,1003.94
2018-05-26T07:11:52.971Z,1003.91
2018-05-26T07:13:03.072Z,1003.91
2018-05-26T07:14:12.905Z,1003.89
2018-05-26T07:15:22.749Z,1003.93
2018-05-26T07:16:32.875Z,1003.88
2018-05-26T07:17:42.753Z,1003.9
2018-05-26T07:18:52.850Z,1003.89
2018-05-26T07:20:02.674Z,1003.86
2018-05-26T07:21:12.496Z,1003.87
2018-05-26T07:22:22.592Z,1003.91
2018-05-26T07:23:32.685Z,1003.92
2018-05-26T07:24:42.869Z,1003.91
2018-05-26T07:25:53.189Z,1003.88
2018-05-26T07:27:03.266Z,1003.87
2018-05-26T07:28:13.366Z,1003.9
2018-05-26T07:29:23.284Z,1003.9
2018-05-26T07:30:33.356Z,1003.9
2018-05-26T07:31:43.432Z,1003.9
2018-05-26T07:32:53.531Z,1003.92
2018-05-26T07:34:03.615Z,1003.93
2018-05-26T07:35:13.734Z,1003.92
2018-05-26T07:36:23.545Z,1003.93
2018-05-26T07:37:33.628Z,1003.92
2018-05-26T07:38:43.708Z,1003.93
2018-05-26T07:39:53.822Z,1003.92
2018-05-26T07:41:03.994Z,1003.84
2018-05-26T07:42:14.090Z,1003.89
2018-05-26T07:43:24.158Z,1003.86
2018-05-26T07:44:33.987Z,1003.85
2018-05-26T07:45:43.826Z,1003.86
2018-05-26T07:46:53.958Z,1003.85
2018-05-26T07:48:04.045Z,1003.85
2018-05-26T07:49:14.147Z,1003.88
2018-05-26T07:50:24.252Z,1003.84
2018-05-26T07:51:34.061Z,1003.84
2018-05-26T07:52:43.940Z,1003.92
2018-05-26T07:53:53.763Z,1003.87
2018-05-26T07:55:03.584Z,1003.88
2018-05-26T07:56:13.414Z,1003.96
2018-05-26T07:57:23.406Z,1003.93
2018-05-26T07:58:33.602Z,1003.94
2018-05-26T07:59:44.203Z,1003.93
2018-05-26T08:00:54.315Z,1003.92
2018-05-26T08:02:04.456Z,1003.92
2018-05-26T08:03:14.536Z,1003.92
2018-05-26T08:04:24.682Z,1003.87
2018-05-26T08:05:34.786Z,1003.87
2018-05-26T08:06:44.867Z,1003.86
2018-05-26T08:07:54.684Z,1003.88
2018-05-26T08:09:04.790Z,1003.87
2018-05-26T08:10:14.681Z,1003.89
2018-05-26T08:11:24.790Z,1003.9
2018-05-26T08:12:34.873Z,1003.89
2018-05-26T08:13:44.977Z,1003.9
2018-05-26T08:14:55.065Z,1003.86
2018-05-26T08:16:04.940Z,1003.89
2018-05-26T08:17:15.068Z,1003.88
2018-05-26T08:18:25.760Z,1003.89
2018-05-26T08:19:35.652Z,1003.89
2018-05-26T08:20:45.750Z,1003.92
2018-05-26T08:21:55.616Z,1003.9
2018-05-26T08:23:05.719Z,1003.91
2018-05-26T08:24:15.569Z,1003.9
2018-05-26T08:25:25.651Z,1003.94
2018-05-26T08:26:35.753Z,1003.94
2018-05-26T08:27:45.894Z,1003.89
2018-05-26T08:28:55.727Z,1003.91
2018-05-26T08:30:05.843Z,1003.94
2018-05-26T08:31:15.940Z,1003.94
2018-05-26T08:32:26.025Z,1003.93
2018-05-26T08:33:35.611Z,1003.91
2018-05-26T08:34:45.760Z,1003.93
2018-05-26T08:35:55.878Z,1003.95
2018-05-26T08:37:05.706Z,1003.98
2018-05-26T08:38:15.813Z,1003.94
2018-05-26T08:39:25.889Z,1004.01
2018-05-26T08:40:36.003Z,1003.98
2018-05-26T08:41:45.574Z,1003.97
2018-05-26T08:42:55.668Z,1003.95
2018-05-26T08:44:05.765Z,1003.97
2018-05-26T08:45:15.869Z,1004.01
2018-05-26T08:46:26.021Z,1004.02
2018-05-26T08:47:35.874Z,1004.01
2018-05-26T08:48:45.688Z,1004.03
2018-05-26T08:49:55.774Z,1004.01
2018-05-26T08:51:05.866Z,1004.08
2018-05-26T08:52:16.053Z,1004.04
2018-05-26T08:53:26.142Z,1004.11
2018-05-26T08:54:35.953Z,1004.13
2018-05-26T08:55:46.048Z,1004.13
2018-05-26T08:56:56.148Z,1004.1
2018-05-26T08:58:06.244Z,1004.06
2018-05-26T08:59:16.356Z,1004.05
2018-05-26T09:00:26.467Z,1004.08
2018-05-26T09:01:36.544Z,1004.06
2018-05-26T09:02:46.646Z,1004.09
2018-05-26T09:03:56.464Z,1004.05
2018-05-26T09:05:06.311Z,1004.03
2018-05-26T09:06:16.433Z,1004.03
2018-05-26T09:07:26.044Z,1004.05
2018-05-26T09:08:35.915Z,1004.08
2018-05-26T09:09:46.019Z,1004.09
2018-05-26T09:10:56.122Z,1004.09
2018-05-26T09:12:06.225Z,1004.11
2018-05-26T09:13:15.837Z,1004.05
2018-05-26T09:14:25.965Z,1004.06
2018-05-26T09:15:36.051Z,1004.04
2018-05-26T09:16:46.127Z,1004.09
2018-05-26T09:17:56.237Z,1004.09
2018-05-26T09:19:06.338Z,1004.1
2018-05-26T09:20:16.511Z,1004.08
2018-05-26T09:21:26.596Z,1004.09
2018-05-26T09:22:36.440Z,1004.06
2018-05-26T09:23:46.285Z,1004.07
2018-05-26T09:24:56.134Z,1004.06
2018-05-26T09:26:05.825Z,1004.05
2018-05-26T09:27:15.913Z,1004.11
2018-05-26T09:28:25.738Z,1004.1
2018-05-26T09:29:35.825Z,1004.11
2018-05-26T09:30:45.633Z,1004.06
2018-05-26T09:31:55.730Z,1004.07
2018-05-26T09:33:05.843Z,1004.06
2018-05-26T09:34:15.959Z,1004.08
2018-05-26T09:35:25.819Z,1004
2018-05-26T09:36:35.658Z,1004.1
2018-05-26T09:37:45.832Z,1004.01
2018-05-26T09:38:55.910Z,1004.06
2018-05-26T09:40:05.788Z,1004.08
2018-05-26T09:41:16.006Z,1004.07
2018-05-26T09:42:26.108Z,1004.08
2018-05-26T09:43:36.275Z,1004.03
2018-05-26T09:44:46.498Z,1004
2018-05-26T09:45:56.330Z,1004
2018-05-26T09:47:06.429Z,1004.03
2018-05-26T09:48:16.543Z,1004.02
2018-05-26T09:49:26.155Z,1004.02
2018-05-26T09:50:36.000Z,1004
2018-05-26T09:51:46.349Z,1004.05
2018-05-26T09:52:56.196Z,1004.03
2018-05-26T09:54:06.293Z,1004
2018-05-26T09:55:16.430Z,1003.99
2018-05-26T09:56:26.357Z,1004.05
2018-05-26T09:57:36.611Z,1003.98
2018-05-26T09:58:46.724Z,1004.02
2018-05-26T09:59:56.307Z,1003.99
2018-05-26T10:01:06.197Z,1004
2018-05-26T10:02:16.333Z,1004
2018-05-26T10:03:26.447Z,1003.98
2018-05-26T10:04:36.567Z,1004.04
2018-05-26T10:05:46.391Z,1003.97
2018-05-26T10:06:56.477Z,1003.98
2018-05-26T10:08:06.317Z,1003.95
2018-05-26T10:09:16.452Z,1003.94
2018-05-26T10:10:26.665Z,1003.96
2018-05-26T10:11:36.756Z,1003.93
2018-05-26T10:12:46.925Z,1003.93
2018-05-26T10:13:57.017Z,1003.92
2018-05-26T10:15:07.123Z,1003.96
2018-05-26T10:16:16.687Z,1003.93
2018-05-26T10:17:26.528Z,1003.96
2018-05-26T10:18:36.678Z,1003.96
2018-05-26T10:19:46.527Z,1003.93
2018-05-26T10:20:56.723Z,1003.91
2018-05-26T10:22:06.554Z,1003.88
2018-05-26T10:23:16.639Z,1003.88
2018-05-26T10:24:26.515Z,1003.92
2018-05-26T10:25:36.347Z,1003.94
2018-05-26T10:26:46.190Z,1003.91
2018-05-26T10:27:55.997Z,1003.92
2018-05-26T10:29:05.820Z,1003.87
2018-05-26T10:30:15.947Z,1003.93
2018-05-26T10:31:26.035Z,1004
2018-05-26T10:32:36.144Z,1003.97
2018-05-26T10:33:45.695Z,1003.97
2018-05-26T10:34:55.016Z,1003.96
2018-05-26T10:36:04.595Z,1003.96
2018-05-26T10:37:14.716Z,1003.91
2018-05-26T10:38:24.808Z,1003.94
2018-05-26T10:39:34.928Z,1003.92
2018-05-26T10:40:44.770Z,1003.87
2018-05-26T10:41:54.657Z,1003.96
2018-05-26T10:43:04.759Z,1003.92
2018-05-26T10:44:14.826Z,1003.93
2018-05-26T10:45:24.688Z,1003.88
2018-05-26T10:46:34.796Z,1003.9
2018-05-26T10:47:44.907Z,1003.93
2018-05-26T10:48:55.008Z,1003.91
2018-05-26T10:50:05.142Z,1003.96
2018-05-26T10:51:15.295Z,1003.97
2018-05-26T10:52:25.138Z,1003.98
2018-05-26T10:53:35.272Z,1003.97
2018-05-26T10:54:45.083Z,1004.01
2018-05-26T10:55:54.697Z,1003.96
2018-05-26T10:57:04.877Z,1003.95
2018-05-26T10:58:14.687Z,1004
2018-05-26T10:59:25.054Z,1003.96
2018-05-26T11:00:35.151Z,1003.94
2018-05-26T11:01:45.249Z,1004.01
2018-05-26T11:02:55.089Z,1003.96
2018-05-26T11:04:04.923Z,1003.98
2018-05-26T11:05:15.336Z,1003.98
2018-05-26T11:06:25.428Z,1003.96
2018-05-26T11:07:35.500Z,1003.95
2018-05-26T11:08:45.345Z,1003.94
2018-05-26T11:09:55.446Z,1003.89
2018-05-26T11:11:05.624Z,1003.92
2018-05-26T11:12:15.728Z,1003.93
2018-05-26T11:13:25.859Z,1003.93
2018-05-26T11:14:35.855Z,1003.95
2018-05-26T11:15:45.563Z,1003.95
2018-05-26T11:16:55.178Z,1003.95
2018-05-26T11:18:05.422Z,1003.95
2018-05-26T11:19:15.260Z,1003.94
2018-05-26T11:20:25.363Z,1003.88
2018-05-26T11:21:35.185Z,1003.86
2018-05-26T11:22:44.494Z,1003.81
2018-05-26T11:23:54.732Z,1003.86
2018-05-26T11:25:06.239Z,1003.85
2018-05-26T11:26:16.341Z,1003.89
2018-05-26T11:27:26.234Z,1003.87
2018-05-26T11:28:36.323Z,1003.91
2018-05-26T11:29:46.456Z,1003.9
2018-05-26T11:30:56.766Z,1003.83
2018-05-26T11:32:07.126Z,1003.91
2018-05-26T11:33:17.250Z,1003.9
2018-05-26T11:34:27.361Z,1003.85
2018-05-26T11:35:37.469Z,1003.81
2018-05-26T11:36:47.574Z,1003.79
2018-05-26T11:37:57.416Z,1003.81
2018-05-26T11:39:07.511Z,1003.83
2018-05-26T11:40:17.621Z,1003.78
2018-05-26T11:41:27.708Z,1003.79
2018-05-26T11:42:37.535Z,1003.79
2018-05-26T11:43:47.620Z,1003.78
2018-05-26T11:44:57.741Z,1003.76
2018-05-26T11:46:07.885Z,1003.73
2018-05-26T11:47:17.729Z,1003.78
2018-05-26T11:48:27.930Z,1003.75
2018-05-26T11:49:37.768Z,1003.75
2018-05-26T11:50:47.860Z,1003.74
2018-05-26T11:51:57.948Z,1003.72
2018-05-26T11:53:08.048Z,1003.73
2018-05-26T11:54:18.265Z,1003.74
2018-05-26T11:55:28.114Z,1003.72
2018-05-26T11:56:37.987Z,1003.74
2018-05-26T11:57:48.080Z,1003.7
2018-05-26T11:58:57.903Z,1003.67
2018-05-26T12:00:07.997Z,1003.67
2018-05-26T12:01:18.110Z,1003.7
2018-05-26T12:02:28.254Z,1003.71
2018-05-26T12:03:38.370Z,1003.61
2018-05-26T12:04:48.477Z,1003.72
2018-05-26T12:05:58.292Z,1003.69
2018-05-26T12:07:08.423Z,1003.67
2018-05-26T12:08:18.246Z,1003.66
2018-05-26T12:09:28.342Z,1003.62
2018-05-26T12:10:38.170Z,1003.62
2018-05-26T12:11:48.373Z,1003.59
2018-05-26T12:12:58.489Z,1003.6
2018-05-26T12:14:08.589Z,1003.56
2018-05-26T12:15:18.497Z,1003.55
2018-05-26T12:16:28.330Z,1003.56
2018-05-26T12:17:38.167Z,1003.57
2018-05-26T12:18:48.020Z,1003.53
2018-05-26T12:19:58.115Z,1003.52
2018-05-26T12:21:08.209Z,1003.52
2018-05-26T12:22:18.295Z,1003.49
2018-05-26T12:23:27.862Z,1003.44
2018-05-26T12:24:37.963Z,1003.46
2018-05-26T12:25:48.052Z,1003.42
2018-05-26T12:26:57.931Z,1003.43
2018-05-26T12:28:07.806Z,1003.38
2018-05-26T12:29:17.922Z,1003.39
2018-05-26T12:30:28.004Z,1003.45
2018-05-26T12:31:38.110Z,1003.43
2018-05-26T12:32:47.694Z,1003.43
2018-05-26T12:33:57.852Z,1003.43
2018-05-26T12:35:08.171Z,1003.41
2018-05-26T12:36:17.741Z,1003.41
2018-05-26T12:37:27.562Z,1003.44
2018-05-26T12:38:37.426Z,1003.38
2018-05-26T12:39:47.559Z,1003.4
2018-05-26T12:40:57.702Z,1003.35
2018-05-26T12:42:07.791Z,1003.38
2018-05-26T12:43:17.918Z,1003.41
2018-05-26T12:44:28.016Z,1003.38
2018-05-26T12:45:37.852Z,1003.38
2018-05-26T12:46:47.705Z,1003.34
2018-05-26T12:47:57.529Z,1003.34
2018-05-26T12:49:07.657Z,1003.29
2018-05-26T12:50:17.775Z,1003.29
2018-05-26T12:51:27.635Z,1003.26
2018-05-26T12:52:37.484Z,1003.25
2018-05-26T12:53:47.593Z,1003.25
2018-05-26T12:54:57.698Z,1003.24
2018-05-26T12:56:07.813Z,1003.22
2018-05-26T12:57:17.926Z,1003.19
2018-05-26T12:58:28.019Z,1003.19
2018-05-26T12:59:38.120Z,1003.18
2018-05-26T13:00:47.819Z,1003.14
2018-05-26T13:01:57.907Z,1003.07
2018-05-26T13:03:08.015Z,1003.08
2018-05-26T13:04:18.121Z,1003.09
2018-05-26T13:05:27.962Z,1003.06
2018-05-26T13:06:38.042Z,1003.05
2018-05-26T13:07:48.146Z,1003.07
2018-05-26T13:08:58.258Z,1003.04
2018-05-26T13:10:07.839Z,1003
2018-05-26T13:11:17.989Z,1002.98
2018-05-26T13:12:28.080Z,1003.01
2018-05-26T13:13:38.154Z,1003.03
2018-05-26T13:14:47.978Z,1003.02
2018-05-26T13:15:57.801Z,1002.98
2018-05-26T13:17:07.934Z,1002.95
2018-05-26T13:18:17.770Z,1002.94
2018-05-26T13:19:27.871Z,1002.94
2018-05-26T13:20:37.943Z,1002.94
2018-05-26T13:21:48.052Z,1002.96
2018-05-26T13:22:58.142Z,1002.87
2018-05-26T13:24:07.708Z,1002.85
2018-05-26T13:25:17.801Z,1002.87
2018-05-26T13:26:27.903Z,1002.92
2018-05-26T13:27:37.988Z,1002.91
2018-05-26T13:28:47.826Z,1002.87
2018-05-26T13:29:57.689Z,1002.81
2018-05-26T13:31:07.774Z,1002.83
2018-05-26T13:32:17.600Z,1002.84
2018-05-26T13:33:27.703Z,1002.8
2018-05-26T13:34:37.814Z,1002.83
2018-05-26T13:35:47.919Z,1002.79
2018-05-26T13:36:57.497Z,1002.82
2018-05-26T13:38:07.615Z,1002.82
2018-05-26T13:39:17.437Z,1002.74
2018-05-26T13:40:27.321Z,1002.72
2018-05-26T13:41:37.143Z,1002.78
2018-05-26T13:42:46.967Z,1002.74
2018-05-26T13:43:57.091Z,1002.77
2018-05-26T13:45:07.215Z,1002.75
2018-05-26T13:46:17.355Z,1002.79
2018-05-26T13:47:27.464Z,1002.79
2018-05-26T13:48:37.555Z,1002.76
2018-05-26T13:49:47.641Z,1002.73
2018-05-26T13:50:57.465Z,1002.7
2018-05-26T13:52:07.637Z,1002.67
2018-05-26T13:53:18.414Z,1002.67
2018-05-26T13:54:28.750Z,1002.63
2018-05-26T13:55:39.288Z,1002.68
2018-05-26T13:56:49.669Z,1002.66
2018-05-26T13:57:59.875Z,1002.67
2018-05-26T13:59:09.965Z,1002.67
2018-05-26T14:00:19.801Z,1002.65
2018-05-26T14:01:29.893Z,1002.67
2018-05-26T14:02:40.006Z,1002.62
2018-05-26T14:03:50.150Z,1002.63
2018-05-26T14:05:00.244Z,1002.61
2018-05-26T14:06:10.357Z,1002.61
2018-05-26T14:07:20.445Z,1002.66
2018-05-26T14:08:30.555Z,1002.62
2018-05-26T14:09:40.671Z,1002.66
2018-05-26T14:10:50.233Z,1002.63
2018-05-26T14:12:00.465Z,1002.64
2018-05-26T14:13:10.558Z,1002.66
2018-05-26T14:14:20.658Z,1002.64
2018-05-26T14:15:30.828Z,1002.64
2018-05-26T14:16:40.929Z,1002.65
2018-05-26T14:17:51.084Z,1002.61
2018-05-26T14:19:01.192Z,1002.6
2018-05-26T14:20:11.023Z,1002.61
2018-05-26T14:21:21.103Z,1002.64
2018-05-26T14:22:30.947Z,1002.61
2018-05-26T14:23:41.079Z,1002.53
2018-05-26T14:24:51.181Z,1002.53
2018-05-26T14:26:00.504Z,1002.57
2018-05-26T14:27:10.660Z,1002.55
2018-05-26T14:28:20.518Z,1002.55
2018-05-26T14:29:30.608Z,1002.53
2018-05-26T14:30:40.720Z,1002.49
2018-05-26T14:31:50.600Z,1002.48
2018-05-26T14:33:00.468Z,1002.52
2018-05-26T14:34:10.575Z,1002.53
2018-05-26T14:35:20.672Z,1002.5
2018-05-26T14:36:30.777Z,1002.5
2018-05-26T14:37:40.612Z,1002.48
2018-05-26T14:38:50.780Z,1002.52
2018-05-26T14:40:00.613Z,1002.5
2018-05-26T14:41:10.734Z,1002.52